Time;durP1;ratioP1;P1;durP2;ratioP2;P2;SDS_P1;SDS_P2;PMS_P1;PMS_P2;Temp;Humidity;BMP_temperature;BMP_pressure;BME280_temperature;BME280_humidity;BME280_pressure;Samples;Min_cycle;Max_cycle;Signal;HPM_P1;HPM_P2
2020/12/30 00:01:00;;;;;;;41.58;18.38;;;;;;;;;;5085422;28;20082;-74
2020/12/30 00:03:27;;;;;;;40.08;20.52;;;;;;;;;;5071156;28;20040;-74
2020/12/30 00:05:55;;;;;;;53.67;25.35;;;;;;;;;;5052753;28;20067;-74
2020/12/30 00:08:22;;;;;;;61.03;27.40;;;;;;;;;;5036471;28;20041;-74
2020/12/30 00:10:53;;;;;;;57.88;25.52;;;;;;;;;;5072939;28;20048;-74
2020/12/30 00:13:21;;;;;;;60.75;28.00;;;;;;;;;;5070424;28;20068;-75
2020/12/30 00:15:49;;;;;;;57.00;24.92;;;;;;;;;;5069185;28;20060;-75
2020/12/30 00:18:17;;;;;;;62.17;28.48;;;;;;;;;;5052438;28;20056;-75
2020/12/30 00:20:44;;;;;;;51.17;24.02;;;;;;;;;;5052292;28;20060;-75
2020/12/30 00:23:12;;;;;;;62.58;27.65;;;;;;;;;;5052906;28;20048;-75
2020/12/30 00:25:40;;;;;;;51.80;24.73;;;;;;;;;;5052665;28;20053;-75
2020/12/30 00:28:08;;;;;;;47.08;24.85;;;;;;;;;;5052621;28;20060;-75
2020/12/30 00:30:35;;;;;;;56.50;27.27;;;;;;;;;;5052652;28;20052;-74
2020/12/30 00:33:03;;;;;;;54.25;26.08;;;;;;;;;;5036532;28;20059;-75
2020/12/30 00:35:31;;;;;;;56.65;28.85;;;;;;;;;;5053017;28;20507;-75
2020/12/30 00:37:58;;;;;;;63.55;32.55;;;;;;;;;;5052937;28;20419;-75
2020/12/30 00:40:26;;;;;;;71.65;34.20;;;;;;;;;;5052602;28;20064;-75
2020/12/30 00:42:53;;;;;;;67.38;32.00;;;;;;;;;;5036356;28;20114;-75
2020/12/30 00:45:21;;;;;;;63.92;31.00;;;;;;;;;;5069252;28;20059;-75
2020/12/30 00:47:49;;;;;;;88.13;38.67;;;;;;;;;;5052100;28;20526;-75
2020/12/30 00:50:17;;;;;;;87.13;38.97;;;;;;;;;;5085691;28;20109;-74
2020/12/30 00:52:45;;;;;;;92.38;42.50;;;;;;;;;;5052246;28;20144;-74
2020/12/30 00:55:13;;;;;;;99.22;49.28;;;;;;;;;;5052328;28;20043;-74
2020/12/30 00:57:52;;;;;;;117.72;52.42;;;;;;;;;;5053306;28;20127;-74
2020/12/30 01:00:22;;;;;;;92.13;45.83;;;;;;;;;;5073385;28;20060;-74
2020/12/30 01:03:21;;;;;;;94.63;46.38;;;;;;;;;;5002944;28;20646;-74
2020/12/30 01:05:49;;;;;;;89.30;43.25;;;;;;;;;;4973920;28;20061;-75
2020/12/30 01:08:17;;;;;;;67.72;35.33;;;;;;;;;;4980453;28;20604;-75
2020/12/30 01:10:44;;;;;;;65.20;33.63;;;;;;;;;;4972492;28;20107;-75
2020/12/30 01:13:12;;;;;;;78.18;36.75;;;;;;;;;;4975303;28;20054;-75
2020/12/30 01:15:40;;;;;;;63.92;36.00;;;;;;;;;;4960344;28;20121;-75
2020/12/30 01:18:07;;;;;;;72.22;38.00;;;;;;;;;;4972509;28;20154;-74
2020/12/30 01:20:35;;;;;;;79.90;44.30;;;;;;;;;;4956233;28;20576;-74
2020/12/30 01:23:03;;;;;;;90.45;46.63;;;;;;;;;;4987747;28;20145;-74
2020/12/30 01:25:30;;;;;;;95.00;47.40;;;;;;;;;;4971397;28;20208;-74
2020/12/30 01:27:58;;;;;;;97.05;49.58;;;;;;;;;;4975329;28;20046;-74
2020/12/30 01:30:26;;;;;;;104.20;51.33;;;;;;;;;;4971758;28;20489;-74
2020/12/30 01:32:53;;;;;;;109.55;53.50;;;;;;;;;;4971674;28;20058;-74
2020/12/30 01:35:21;;;;;;;131.82;57.65;;;;;;;;;;4987738;28;20066;-74
2020/12/30 01:37:49;;;;;;;116.50;55.00;;;;;;;;;;4971476;28;20062;-75
2020/12/30 01:40:16;;;;;;;109.53;50.58;;;;;;;;;;5039638;28;20053;-74
2020/12/30 01:42:49;;;;;;;129.60;56.67;;;;;;;;;;5046986;28;20126;-74
2020/12/30 01:45:16;;;;;;;;;;;;;;;;;;5052533;28;20092;-75
2020/12/30 01:47:48;;;;;;;90.65;43.55;;;;;;;;;;5065418;28;19924;-75
2020/12/30 01:50:16;;;;;;;84.27;42.30;;;;;;;;;;5051044;28;20067;-75
2020/12/30 01:52:44;;;;;;;97.00;46.78;;;;;;;;;;5051142;28;20760;-75
2020/12/30 01:55:12;;;;;;;107.95;50.65;;;;;;;;;;5087549;28;20060;-75
2020/12/30 01:57:40;;;;;;;106.05;52.15;;;;;;;;;;5038013;28;20048;-74
2020/12/30 02:00:09;;;;;;;100.18;48.60;;;;;;;;;;5051230;28;20081;-74
2020/12/30 02:02:38;;;;;;;101.35;50.05;;;;;;;;;;5034131;28;20582;-74
2020/12/30 02:05:08;;;;;;;113.55;55.80;;;;;;;;;;5039486;28;20049;-74
2020/12/30 02:07:36;;;;;;;99.43;46.15;;;;;;;;;;5050680;28;20037;-74
2020/12/30 02:10:04;;;;;;;101.00;50.58;;;;;;;;;;5033779;28;20088;-74
2020/12/30 02:12:32;;;;;;;121.53;53.50;;;;;;;;;;5019638;28;20107;-74
2020/12/30 02:15:00;;;;;;;103.72;53.85;;;;;;;;;;5034406;28;20539;-74
2020/12/30 02:17:27;;;;;;;104.95;51.63;;;;;;;;;;5038929;28;20403;-75
2020/12/30 02:19:55;;;;;;;96.05;50.67;;;;;;;;;;5033691;28;20522;-74
2020/12/30 02:22:25;;;;;;;118.78;56.40;;;;;;;;;;5020704;28;20128;-75
2020/12/30 02:24:52;;;;;;;107.35;53.42;;;;;;;;;;5052392;28;20492;-75
2020/12/30 02:27:20;;;;;;;108.32;53.67;;;;;;;;;;5038263;28;20049;-75
2020/12/30 02:29:48;;;;;;;94.00;48.92;;;;;;;;;;5022133;28;20045;-75
2020/12/30 02:32:15;;;;;;;90.93;47.83;;;;;;;;;;5038285;28;20068;-74
2020/12/30 02:34:43;;;;;;;85.53;48.25;;;;;;;;;;5038498;28;20071;-75
2020/12/30 02:37:11;;;;;;;103.00;50.53;;;;;;;;;;5055408;28;20091;-74
2020/12/30 02:39:38;;;;;;;100.00;52.25;;;;;;;;;;5039961;28;20068;-75
2020/12/30 02:42:06;;;;;;;109.22;55.50;;;;;;;;;;5037399;28;20053;-75
2020/12/30 02:44:33;;;;;;;110.75;53.03;;;;;;;;;;5037049;28;20052;-75
2020/12/30 02:47:01;;;;;;;109.80;52.63;;;;;;;;;;5021320;28;20463;-74
2020/12/30 02:49:29;;;;;;;98.63;51.17;;;;;;;;;;5014566;28;20080;-75
2020/12/30 02:51:56;;;;;;;105.53;53.17;;;;;;;;;;5070378;28;20138;-74
2020/12/30 02:54:24;;;;;;;100.20;52.30;;;;;;;;;;5005979;28;20049;-75
2020/12/30 02:56:52;;;;;;;101.90;50.55;;;;;;;;;;5021460;28;20041;-74
2020/12/30 02:59:19;;;;;;;110.10;54.60;;;;;;;;;;5060430;28;20037;-74
2020/12/30 03:01:47;;;;;;;105.60;54.72;;;;;;;;;;5032171;28;20088;-75
2020/12/30 03:04:14;;;;;;;110.05;55.40;;;;;;;;;;5062551;28;20064;-75
2020/12/30 03:06:42;;;;;;;109.40;59.10;;;;;;;;;;5055483;28;20036;-74
2020/12/30 03:09:10;;;;;;;109.53;54.33;;;;;;;;;;5071730;28;20056;-74
2020/12/30 03:11:37;;;;;;;108.53;55.28;;;;;;;;;;5070158;28;20171;-74
2020/12/30 03:14:05;;;;;;;115.93;59.22;;;;;;;;;;5054326;28;20156;-74
2020/12/30 03:16:32;;;;;;;124.25;63.72;;;;;;;;;;5071926;28;20043;-75
2020/12/30 03:19:00;;;;;;;122.65;62.88;;;;;;;;;;5054368;28;20049;-75
2020/12/30 03:21:28;;;;;;;138.38;74.63;;;;;;;;;;5053643;28;20111;-75
2020/12/30 03:23:55;;;;;;;155.75;77.32;;;;;;;;;;5071290;28;20072;-75
2020/12/30 03:26:24;;;;;;;166.38;85.95;;;;;;;;;;5054026;28;20777;-75
2020/12/30 03:28:51;;;;;;;156.50;78.68;;;;;;;;;;5050558;28;20057;-75
2020/12/30 03:31:19;;;;;;;143.05;74.53;;;;;;;;;;5066835;28;20061;-74
2020/12/30 03:33:47;;;;;;;132.80;69.82;;;;;;;;;;5012666;28;20147;-74
2020/12/30 03:36:14;;;;;;;140.20;72.95;;;;;;;;;;5035977;28;20048;-73
2020/12/30 03:38:42;;;;;;;150.32;75.32;;;;;;;;;;5053456;28;20143;-73
2020/12/30 03:41:09;;;;;;;135.93;66.65;;;;;;;;;;5037059;28;20098;-73
2020/12/30 03:43:37;;;;;;;124.50;64.93;;;;;;;;;;5069229;28;20064;-73
2020/12/30 03:46:04;;;;;;;128.25;66.00;;;;;;;;;;5052943;28;20053;-73
2020/12/30 03:48:32;;;;;;;104.00;51.15;;;;;;;;;;5070634;28;20087;-76
2020/12/30 03:51:00;;;;;;;93.28;50.05;;;;;;;;;;5052878;28;20068;-74
2020/12/30 03:53:27;;;;;;;100.35;54.25;;;;;;;;;;5036036;28;20063;-73
2020/12/30 03:55:55;;;;;;;100.63;54.58;;;;;;;;;;5069295;28;20040;-73
2020/12/30 03:58:23;;;;;;;122.03;67.63;;;;;;;;;;5069027;28;20458;-73
2020/12/30 04:00:50;;;;;;;129.05;72.05;;;;;;;;;;5052206;28;20144;-73
2020/12/30 04:03:18;;;;;;;124.07;63.67;;;;;;;;;;5052734;28;20052;-73
2020/12/30 04:05:46;;;;;;;112.70;59.72;;;;;;;;;;5035704;28;20061;-73
2020/12/30 04:08:13;;;;;;;112.68;60.47;;;;;;;;;;5035909;28;20064;-73
2020/12/30 04:10:41;;;;;;;112.40;62.70;;;;;;;;;;5068938;28;20503;-73
2020/12/30 04:13:09;;;;;;;129.65;64.47;;;;;;;;;;5052469;28;20586;-73
2020/12/30 04:15:36;;;;;;;109.47;57.88;;;;;;;;;;5052124;28;20186;-73
2020/12/30 04:18:04;;;;;;;117.18;64.43;;;;;;;;;;5035542;28;20071;-73
2020/12/30 04:20:32;;;;;;;109.45;61.75;;;;;;;;;;5052132;28;20067;-73
2020/12/30 04:22:59;;;;;;;118.90;66.88;;;;;;;;;;5068843;28;20061;-74
2020/12/30 04:25:27;;;;;;;110.28;63.20;;;;;;;;;;5068615;28;20064;-73
2020/12/30 04:27:55;;;;;;;110.75;63.65;;;;;;;;;;5035473;28;20878;-73
2020/12/30 04:30:22;;;;;;;116.57;68.10;;;;;;;;;;5052028;28;20060;-74
2020/12/30 04:32:50;;;;;;;120.55;66.90;;;;;;;;;;5068778;28;20060;-73
2020/12/30 04:35:19;;;;;;;124.18;69.13;;;;;;;;;;5052074;28;20509;-73
2020/12/30 04:37:46;;;;;;;116.88;63.53;;;;;;;;;;5052135;28;20155;-73
2020/12/30 04:40:14;;;;;;;129.20;69.70;;;;;;;;;;5070685;28;20796;-74
2020/12/30 04:42:42;;;;;;;118.90;67.47;;;;;;;;;;5035667;28;20060;-73
2020/12/30 04:45:11;;;;;;;122.80;69.93;;;;;;;;;;5075012;28;20068;-74
2020/12/30 04:47:42;;;;;;;135.85;78.90;;;;;;;;;;5051745;28;20056;-74
2020/12/30 04:50:09;;;;;;;134.82;82.50;;;;;;;;;;5072767;28;20454;-73
2020/12/30 04:52:38;;;;;;;147.68;85.10;;;;;;;;;;5051663;28;20083;-74
2020/12/30 04:55:06;;;;;;;121.47;72.13;;;;;;;;;;5036705;28;20048;-73
2020/12/30 04:58:10;;;;;;;112.90;70.95;;;;;;;;;;5051982;28;20419;-74
2020/12/30 05:00:39;;;;;;;106.28;67.57;;;;;;;;;;5027374;28;20057;-74
2020/12/30 05:03:09;;;;;;;110.60;67.88;;;;;;;;;;4995921;28;20081;-73
2020/12/30 05:05:38;;;;;;;115.05;72.72;;;;;;;;;;5011748;28;20045;-73
2020/12/30 05:08:14;;;;;;;132.65;80.90;;;;;;;;;;4995752;28;20166;-74
2020/12/30 05:10:46;;;;;;;143.60;85.03;;;;;;;;;;4995439;28;20508;-75
2020/12/30 05:13:14;;;;;;;139.38;78.90;;;;;;;;;;4999182;28;20418;-74
2020/12/30 05:15:42;;;;;;;135.98;77.25;;;;;;;;;;5013563;28;20076;-74
2020/12/30 05:18:10;;;;;;;130.60;78.60;;;;;;;;;;5012386;28;20049;-74
2020/12/30 05:20:39;;;;;;;134.23;82.80;;;;;;;;;;5011712;28;20052;-75
2020/12/30 05:23:07;;;;;;;139.90;79.13;;;;;;;;;;5011233;28;20144;-74
2020/12/30 05:25:41;;;;;;;127.78;73.30;;;;;;;;;;4979067;28;20065;-74
2020/12/30 05:28:13;;;;;;;134.20;77.45;;;;;;;;;;4980970;28;20087;-74
2020/12/30 05:30:42;;;;;;;144.77;85.70;;;;;;;;;;4978015;28;20067;-75
2020/12/30 05:33:11;;;;;;;134.85;79.88;;;;;;;;;;4994755;28;20089;-74
2020/12/30 05:35:39;;;;;;;123.43;72.70;;;;;;;;;;5012182;28;20084;-75
2020/12/30 05:38:07;;;;;;;160.35;86.28;;;;;;;;;;4999059;28;20848;-75
2020/12/30 05:40:34;;;;;;;156.63;87.72;;;;;;;;;;5015143;28;20091;-76
2020/12/30 05:43:16;;;;;;;150.98;88.95;;;;;;;;;;5032174;28;20076;-76
2020/12/30 05:45:49;;;;;;;138.25;84.75;;;;;;;;;;5048409;28;20401;-75
2020/12/30 05:48:19;;;;;;;195.23;110.90;;;;;;;;;;5039991;28;20048;-75
2020/12/30 05:50:57;;;;;;;252.90;131.80;;;;;;;;;;5035595;28;20056;-73
2020/12/30 05:53:26;;;;;;;285.00;143.90;;;;;;;;;;5035719;28;20040;-73
2020/12/30 05:56:09;;;;;;;326.02;168.20;;;;;;;;;;5034705;28;20135;-73
2020/12/30 05:58:46;;;;;;;239.85;118.78;;;;;;;;;;5042051;28;20044;-73
2020/12/30 06:01:25;;;;;;;234.40;120.20;;;;;;;;;;5043000;28;20057;-72
2020/12/30 06:03:53;;;;;;;251.80;129.57;;;;;;;;;;5037508;28;20131;-73
2020/12/30 06:06:22;;;;;;;229.85;121.38;;;;;;;;;;5035689;28;20404;-73
2020/12/30 06:08:50;;;;;;;210.98;114.03;;;;;;;;;;5051330;28;20130;-73
2020/12/30 06:11:24;;;;;;;244.15;129.32;;;;;;;;;;5036466;28;20052;-74
2020/12/30 06:13:53;;;;;;;262.08;132.65;;;;;;;;;;5064540;28;20108;-73
2020/12/30 06:16:29;;;;;;;237.75;127.88;;;;;;;;;;5052818;28;20492;-73
2020/12/30 06:18:57;;;;;;;196.07;109.38;;;;;;;;;;5034779;28;20068;-73
2020/12/30 06:21:26;;;;;;;195.65;109.60;;;;;;;;;;5034549;28;20061;-73
2020/12/30 06:23:56;;;;;;;201.13;109.85;;;;;;;;;;5038806;28;20041;-73
2020/12/30 06:26:29;;;;;;;167.68;97.85;;;;;;;;;;5018733;28;20057;-74
2020/12/30 06:28:57;;;;;;;194.15;96.28;;;;;;;;;;5041999;28;20404;-74
2020/12/30 06:31:25;;;;;;;178.65;93.57;;;;;;;;;;5018637;28;20118;-74
2020/12/30 06:33:56;;;;;;;185.63;95.68;;;;;;;;;;5018531;28;20372;-74
2020/12/30 06:36:25;;;;;;;159.75;81.95;;;;;;;;;;5035033;28;20057;-75
2020/12/30 06:38:53;;;;;;;137.70;74.93;;;;;;;;;;5018626;28;20163;-74
2020/12/30 06:41:21;;;;;;;143.20;88.03;;;;;;;;;;5018514;28;20443;-74
2020/12/30 06:43:54;;;;;;;152.88;94.15;;;;;;;;;;5052955;28;20615;-74
2020/12/30 06:46:24;;;;;;;132.43;83.28;;;;;;;;;;5048775;28;20068;-74
2020/12/30 06:48:59;;;;;;;130.75;84.38;;;;;;;;;;5051988;28;20547;-74
2020/12/30 06:51:39;;;;;;;155.20;90.57;;;;;;;;;;5042160;28;20540;-74
2020/12/30 06:54:08;;;;;;;139.50;78.70;;;;;;;;;;5026089;28;20155;-74
2020/12/30 06:56:42;;;;;;;139.23;82.15;;;;;;;;;;5018161;28;20473;-74
2020/12/30 06:59:29;;;;;;;141.50;81.07;;;;;;;;;;5074098;28;20403;-74
2020/12/30 07:02:02;;;;;;;124.70;70.47;;;;;;;;;;5036262;28;20067;-74
2020/12/30 07:04:35;;;;;;;109.40;60.70;;;;;;;;;;5045483;28;20048;-74
2020/12/30 07:07:20;;;;;;;115.90;65.53;;;;;;;;;;5044327;28;20040;-76
2020/12/30 07:09:49;;;;;;;123.45;72.60;;;;;;;;;;5060914;28;20048;-74
2020/12/30 07:12:18;;;;;;;123.35;69.22;;;;;;;;;;5077427;28;20506;-74
2020/12/30 07:14:45;;;;;;;197.98;97.97;;;;;;;;;;5071643;28;20448;-75
2020/12/30 07:17:13;;;;;;;227.48;113.60;;;;;;;;;;5070713;28;20045;-74
2020/12/30 07:19:41;;;;;;;202.57;104.15;;;;;;;;;;5070457;28;20110;-75
2020/12/30 07:22:14;;;;;;;161.15;91.18;;;;;;;;;;5053690;28;20132;-74
2020/12/30 07:24:57;;;;;;;224.43;122.00;;;;;;;;;;5053607;28;20057;-74
2020/12/30 07:27:29;;;;;;;172.75;103.85;;;;;;;;;;5077693;28;20040;-73
2020/12/30 07:29:57;;;;;;;172.15;97.78;;;;;;;;;;5072096;28;20072;-73
2020/12/30 07:32:26;;;;;;;171.23;100.90;;;;;;;;;;5071918;28;20057;-73
2020/12/30 07:34:53;;;;;;;193.27;105.43;;;;;;;;;;5037388;28;20176;-73
2020/12/30 07:37:22;;;;;;;174.52;94.93;;;;;;;;;;5054083;28;20483;-73
2020/12/30 07:39:51;;;;;;;195.38;100.68;;;;;;;;;;5037260;28;20060;-73
2020/12/30 07:42:23;;;;;;;201.15;108.40;;;;;;;;;;5070498;28;20067;-73
2020/12/30 07:44:55;;;;;;;280.90;146.43;;;;;;;;;;5044731;28;20040;-73
2020/12/30 07:47:24;;;;;;;;;;;;;;;;;;5073578;28;20041;-74
2020/12/30 07:50:00;;;;;;;227.55;110.97;;;;;;;;;;5072608;28;20001;-74
2020/12/30 07:52:29;;;;;;;238.95;124.05;;;;;;;;;;5054657;28;20040;-75
2020/12/30 07:54:58;;;;;;;240.93;125.00;;;;;;;;;;5043980;28;20127;-74
2020/12/30 07:57:26;;;;;;;247.85;127.65;;;;;;;;;;5053272;28;20506;-74
2020/12/30 07:59:53;;;;;;;227.50;126.55;;;;;;;;;;5035793;28;20103;-74
2020/12/30 08:02:24;;;;;;;263.85;140.65;;;;;;;;;;5039790;28;20452;-74
2020/12/30 08:05:02;;;;;;;306.50;176.98;;;;;;;;;;5039551;28;20041;-74
2020/12/30 08:07:33;;;;;;;295.27;164.00;;;;;;;;;;5038547;28;20092;-74
2020/12/30 08:10:01;;;;;;;262.88;144.93;;;;;;;;;;5060642;28;20125;-74
2020/12/30 08:12:29;;;;;;;271.90;141.82;;;;;;;;;;5060099;28;20115;-74
2020/12/30 08:14:57;;;;;;;291.25;139.57;;;;;;;;;;5069247;28;20466;-73
2020/12/30 08:17:25;;;;;;;300.08;146.02;;;;;;;;;;5059856;28;20388;-74
2020/12/30 08:19:53;;;;;;;305.48;148.07;;;;;;;;;;5055377;28;20052;-73
2020/12/30 08:22:29;;;;;;;342.08;183.23;;;;;;;;;;5055433;28;20135;-74
2020/12/30 08:24:59;;;;;;;326.75;176.95;;;;;;;;;;5060809;28;20045;-75
2020/12/30 08:27:30;;;;;;;310.65;163.65;;;;;;;;;;5054651;28;20415;-77
2020/12/30 08:30:01;;;;;;;300.27;156.95;;;;;;;;;;5073159;28;20372;-77
2020/12/30 08:32:35;;;;;;;305.88;155.80;;;;;;;;;;5071545;28;20053;-77
2020/12/30 08:35:16;;;;;;;283.48;150.43;;;;;;;;;;5075408;28;20071;-77
2020/12/30 08:38:12;;;;;;;261.30;140.10;;;;;;;;;;5074086;28;20044;-77
2020/12/30 08:40:43;;;;;;;232.80;119.32;;;;;;;;;;5057378;28;20041;-77
2020/12/30 08:43:11;;;;;;;197.65;110.53;;;;;;;;;;5037414;28;20434;-77
2020/12/30 08:45:42;;;;;;;197.05;105.60;;;;;;;;;;5054284;28;20101;-77
2020/12/30 08:48:21;;;;;;;205.43;111.63;;;;;;;;;;5044006;28;20046;-77
2020/12/30 08:50:50;;;;;;;246.98;127.00;;;;;;;;;;5038053;28;20056;-77
2020/12/30 08:53:35;;;;;;;263.27;138.98;;;;;;;;;;5054927;28;20061;-78
2020/12/30 08:56:05;;;;;;;258.27;133.07;;;;;;;;;;5045171;28;20040;-78
2020/12/30 08:58:34;;;;;;;245.20;128.85;;;;;;;;;;5054776;28;20037;-76
2020/12/30 09:01:02;;;;;;;232.38;124.63;;;;;;;;;;5034810;28;20060;-75
2020/12/30 09:03:30;;;;;;;241.75;125.55;;;;;;;;;;5051589;28;20468;-77
2020/12/30 09:05:59;;;;;;;239.35;122.38;;;;;;;;;;5069897;28;20141;-76
2020/12/30 09:08:29;;;;;;;239.75;129.00;;;;;;;;;;5052101;28;20072;-75
2020/12/30 09:10:58;;;;;;;256.08;127.95;;;;;;;;;;5053664;28;20470;-78
2020/12/30 09:13:30;;;;;;;252.10;133.93;;;;;;;;;;5037162;28;20118;-76
2020/12/30 09:16:04;;;;;;;243.23;128.75;;;;;;;;;;5054221;28;20067;-75
2020/12/30 09:18:36;;;;;;;236.57;128.20;;;;;;;;;;5054857;28;20056;-76
2020/12/30 09:21:18;;;;;;;225.55;122.20;;;;;;;;;;5061077;28;20043;-75
2020/12/30 09:23:46;;;;;;;227.65;124.45;;;;;;;;;;5063481;28;20098;-76
2020/12/30 09:26:28;;;;;;;205.43;118.28;;;;;;;;;;5045173;28;20101;-77
2020/12/30 09:28:55;;;;;;;207.45;119.82;;;;;;;;;;5073279;28;20045;-76
2020/12/30 09:31:23;;;;;;;202.75;122.07;;;;;;;;;;5061212;28;20044;-76
2020/12/30 09:33:51;;;;;;;211.93;122.10;;;;;;;;;;5039858;28;20105;-75
2020/12/30 09:36:19;;;;;;;208.77;119.32;;;;;;;;;;5054610;28;20052;-76
2020/12/30 09:38:55;;;;;;;205.82;119.35;;;;;;;;;;5054811;28;20792;-77
2020/12/30 09:41:22;;;;;;;214.20;117.68;;;;;;;;;;5054270;28;20056;-77
2020/12/30 09:43:50;;;;;;;197.35;120.88;;;;;;;;;;5053586;28;20056;-77
2020/12/30 09:46:22;;;;;;;197.02;118.85;;;;;;;;;;5071132;28;20143;-77
2020/12/30 09:48:50;;;;;;;196.77;115.47;;;;;;;;;;5037232;28;20044;-77
2020/12/30 09:51:18;;;;;;;181.43;107.57;;;;;;;;;;5010339;28;20115;-77
2020/12/30 09:53:47;;;;;;;192.68;113.07;;;;;;;;;;5055616;28;20044;-77
2020/12/30 09:56:15;;;;;;;185.07;108.38;;;;;;;;;;5021628;28;20484;-76
2020/12/30 09:58:44;;;;;;;209.70;124.05;;;;;;;;;;5016632;28;20051;-74
2020/12/30 10:01:11;;;;;;;233.57;136.18;;;;;;;;;;5063917;28;20133;-74
2020/12/30 10:03:39;;;;;;;219.85;133.45;;;;;;;;;;5070685;28;20070;-73
2020/12/30 10:06:11;;;;;;;225.52;134.70;;;;;;;;;;5054237;28;20040;-75
2020/12/30 10:08:40;;;;;;;;;;;;;;;;;;5070647;28;20067;-74
2020/12/30 10:11:08;;;;;;;207.27;121.18;;;;;;;;;;5073700;28;19920;-73
2020/12/30 10:13:35;;;;;;;236.55;140.35;;;;;;;;;;5072569;28;20078;-73
2020/12/30 10:16:03;;;;;;;265.73;155.43;;;;;;;;;;5071123;28;20060;-76
2020/12/30 10:18:31;;;;;;;283.15;166.63;;;;;;;;;;5094690;28;20094;-73
2020/12/30 10:20:59;;;;;;;260.10;157.02;;;;;;;;;;5058258;28;20106;-74
2020/12/30 10:23:27;;;;;;;253.82;152.50;;;;;;;;;;5067945;28;20056;-77
2020/12/30 10:25:55;;;;;;;270.70;159.70;;;;;;;;;;5070121;28;20448;-75
2020/12/30 10:28:23;;;;;;;262.40;155.02;;;;;;;;;;5089619;28;20068;-75
2020/12/30 10:30:50;;;;;;;213.23;127.32;;;;;;;;;;5069806;28;20060;-75
2020/12/30 10:33:18;;;;;;;207.95;127.90;;;;;;;;;;5058889;28;20121;-75
2020/12/30 10:35:46;;;;;;;216.45;136.32;;;;;;;;;;5058488;28;20086;-75
2020/12/30 10:38:13;;;;;;;209.63;129.30;;;;;;;;;;5053542;28;20666;-75
2020/12/30 10:40:41;;;;;;;196.18;122.97;;;;;;;;;;5071338;28;20096;-75
2020/12/30 10:43:08;;;;;;;184.05;115.88;;;;;;;;;;5070844;28;20125;-76
2020/12/30 10:45:36;;;;;;;164.32;106.55;;;;;;;;;;5076834;28;20522;-76
2020/12/30 10:48:04;;;;;;;168.55;110.43;;;;;;;;;;5071717;28;20788;-76
2020/12/30 10:50:32;;;;;;;171.55;110.43;;;;;;;;;;5055801;28;20080;-75
2020/12/30 10:53:00;;;;;;;181.40;115.10;;;;;;;;;;5054029;28;20049;-76
2020/12/30 10:55:27;;;;;;;194.07;122.38;;;;;;;;;;5053699;28;20045;-76
2020/12/30 10:57:55;;;;;;;180.45;114.22;;;;;;;;;;5036547;28;20577;-76
2020/12/30 11:00:22;;;;;;;197.55;123.60;;;;;;;;;;5048242;28;20064;-76
2020/12/30 11:02:50;;;;;;;199.23;122.55;;;;;;;;;;5033247;28;20565;-73
2020/12/30 11:05:18;;;;;;;192.48;122.47;;;;;;;;;;5033249;28;20059;-74
2020/12/30 11:07:46;;;;;;;188.80;119.50;;;;;;;;;;5049971;28;20088;-75
2020/12/30 11:10:14;;;;;;;180.20;113.30;;;;;;;;;;5051454;28;20151;-75
2020/12/30 11:12:41;;;;;;;164.40;105.30;;;;;;;;;;5017013;28;20052;-75
2020/12/30 11:15:09;;;;;;;163.32;104.78;;;;;;;;;;5038729;28;20053;-74
2020/12/30 11:17:37;;;;;;;171.38;107.88;;;;;;;;;;5033366;28;20072;-75
2020/12/30 11:20:04;;;;;;;175.68;108.97;;;;;;;;;;5034013;28;20045;-76
2020/12/30 11:22:32;;;;;;;181.77;116.72;;;;;;;;;;5033355;28;20057;-75
2020/12/30 11:25:00;;;;;;;192.93;120.10;;;;;;;;;;5044272;28;20418;-75
2020/12/30 11:27:27;;;;;;;175.88;119.10;;;;;;;;;;5053134;28;20059;-76
2020/12/30 11:29:55;;;;;;;172.82;113.10;;;;;;;;;;5053352;28;20471;-75
2020/12/30 11:32:23;;;;;;;176.77;110.63;;;;;;;;;;5052832;28;20052;-74
2020/12/30 11:34:50;;;;;;;180.10;115.60;;;;;;;;;;5052851;28;20764;-76
2020/12/30 11:37:18;;;;;;;182.80;119.50;;;;;;;;;;5054839;28;20043;-77
2020/12/30 11:39:46;;;;;;;178.82;114.07;;;;;;;;;;5044596;28;20064;-75
2020/12/30 11:42:13;;;;;;;183.55;116.45;;;;;;;;;;5049436;28;20407;-74
2020/12/30 11:44:41;;;;;;;204.70;130.98;;;;;;;;;;5032755;28;20040;-75
2020/12/30 11:47:08;;;;;;;215.93;137.82;;;;;;;;;;5033137;28;20057;-74
2020/12/30 11:49:36;;;;;;;256.55;166.15;;;;;;;;;;5038748;28;20044;-74
2020/12/30 11:52:03;;;;;;;239.80;149.18;;;;;;;;;;5058132;28;20040;-74
2020/12/30 11:54:32;;;;;;;236.40;148.45;;;;;;;;;;5036662;28;20049;-75
2020/12/30 11:56:59;;;;;;;261.10;162.07;;;;;;;;;;5055616;28;20048;-75
2020/12/30 11:59:26;;;;;;;290.90;174.40;;;;;;;;;;5077487;28;20117;-75
2020/12/30 12:01:54;;;;;;;272.08;167.23;;;;;;;;;;5070838;28;20060;-76
2020/12/30 12:04:22;;;;;;;261.63;162.52;;;;;;;;;;5048311;28;20457;-76
2020/12/30 12:06:49;;;;;;;256.13;162.63;;;;;;;;;;5052632;28;20067;-75
2020/12/30 12:09:17;;;;;;;380.67;224.70;;;;;;;;;;5052941;28;20036;-75
2020/12/30 12:11:45;;;;;;;324.90;191.60;;;;;;;;;;5051989;28;20056;-75
2020/12/30 12:14:12;;;;;;;303.15;179.57;;;;;;;;;;5035494;28;20143;-75
2020/12/30 12:16:40;;;;;;;322.77;186.55;;;;;;;;;;5071744;28;20056;-75
2020/12/30 12:19:08;;;;;;;864.83;388.77;;;;;;;;;;5042439;28;20479;-75
2020/12/30 12:21:39;;;;;;;504.80;283.45;;;;;;;;;;5035804;28;20048;-75
2020/12/30 12:24:07;;;;;;;366.50;214.20;;;;;;;;;;5057066;28;20046;-75
2020/12/30 12:26:34;;;;;;;390.63;229.13;;;;;;;;;;5058771;28;20067;-76
2020/12/30 12:29:42;;;;;;;287.85;180.70;;;;;;;;;;5035447;28;20077;-74
2020/12/30 12:32:12;;;;;;;266.67;165.07;;;;;;;;;;5041062;28;20056;-74
2020/12/30 12:34:43;;;;;;;291.17;177.73;;;;;;;;;;5035464;28;20064;-75
2020/12/30 12:37:12;;;;;;;271.65;168.10;;;;;;;;;;5052062;28;20052;-75
2020/12/30 12:39:42;;;;;;;302.88;195.52;;;;;;;;;;5021468;28;20044;-75
2020/12/30 12:42:11;;;;;;;309.38;192.02;;;;;;;;;;5051944;28;20050;-74
2020/12/30 12:44:39;;;;;;;305.75;191.05;;;;;;;;;;5056743;28;20056;-75
2020/12/30 12:47:07;;;;;;;354.90;220.55;;;;;;;;;;5055802;28;20043;-75
2020/12/30 12:49:35;;;;;;;325.77;198.57;;;;;;;;;;5051189;28;20063;-74
2020/12/30 12:52:03;;;;;;;313.95;194.02;;;;;;;;;;5053942;28;20052;-75
2020/12/30 12:54:32;;;;;;;327.95;199.63;;;;;;;;;;5035020;28;20068;-74
2020/12/30 12:57:03;;;;;;;317.92;191.35;;;;;;;;;;5041827;28;20045;-75
2020/12/30 12:59:34;;;;;;;317.50;200.18;;;;;;;;;;5026422;28;20377;-74
2020/12/30 13:02:05;;;;;;;293.83;185.95;;;;;;;;;;5032097;28;20052;-74
2020/12/30 13:04:33;;;;;;;307.30;187.98;;;;;;;;;;5031822;28;20052;-74
2020/12/30 13:07:01;;;;;;;295.48;183.88;;;;;;;;;;5014774;28;20089;-74
2020/12/30 13:09:29;;;;;;;330.70;203.50;;;;;;;;;;5036830;28;20037;-75
2020/12/30 13:11:57;;;;;;;333.98;196.73;;;;;;;;;;5030827;28;20060;-75
2020/12/30 13:14:25;;;;;;;315.45;195.38;;;;;;;;;;5040878;28;20041;-75
2020/12/30 13:16:53;;;;;;;316.35;200.32;;;;;;;;;;5068407;28;20137;-75
2020/12/30 13:19:22;;;;;;;301.05;183.65;;;;;;;;;;5034584;28;20048;-75
2020/12/30 13:21:50;;;;;;;301.23;193.50;;;;;;;;;;5034834;28;20055;-75
2020/12/30 13:24:17;;;;;;;296.17;184.93;;;;;;;;;;5051801;28;20549;-74
2020/12/30 13:26:45;;;;;;;308.13;191.88;;;;;;;;;;5040811;28;20048;-74
2020/12/30 13:29:13;;;;;;;295.77;187.73;;;;;;;;;;5036974;28;20498;-74
2020/12/30 13:31:40;;;;;;;300.63;181.63;;;;;;;;;;5034535;28;20052;-74
2020/12/30 13:34:08;;;;;;;289.83;179.02;;;;;;;;;;5068207;28;20148;-75
2020/12/30 13:36:36;;;;;;;291.27;176.80;;;;;;;;;;5039480;28;20050;-75
2020/12/30 13:39:03;;;;;;;292.63;174.82;;;;;;;;;;5034321;28;20044;-75
2020/12/30 13:41:37;;;;;;;285.65;176.57;;;;;;;;;;5068955;28;20109;-75
2020/12/30 13:44:06;;;;;;;300.35;183.40;;;;;;;;;;5036220;28;20812;-74
2020/12/30 13:46:33;;;;;;;308.77;193.48;;;;;;;;;;5050488;28;20182;-76
2020/12/30 13:49:01;;;;;;;307.65;189.65;;;;;;;;;;5050998;28;20119;-73
2020/12/30 13:51:29;;;;;;;297.20;183.98;;;;;;;;;;5035633;28;20107;-75
2020/12/30 13:53:57;;;;;;;288.52;179.82;;;;;;;;;;5063974;28;20074;-75
2020/12/30 13:56:29;;;;;;;302.27;183.02;;;;;;;;;;5070553;28;20067;-75
2020/12/30 13:58:57;;;;;;;287.48;178.43;;;;;;;;;;5056044;28;20044;-78
2020/12/30 14:01:25;;;;;;;260.75;166.00;;;;;;;;;;5070887;28;20493;-76
2020/12/30 14:03:52;;;;;;;242.77;159.45;;;;;;;;;;5062351;28;20121;-77
2020/12/30 14:06:25;;;;;;;;;;;;;;;;;;5042490;28;20045;-75
2020/12/30 14:08:53;;;;;;;225.52;144.57;;;;;;;;;;5018257;28;19931;-75
2020/12/30 14:11:20;;;;;;;241.43;153.63;;;;;;;;;;5066204;28;20511;-74
2020/12/30 14:13:48;;;;;;;237.27;164.43;;;;;;;;;;5034027;28;20040;-74